createdAt,value
2023-03-02T00:00:17.085Z,91.05
2023-03-02T00:02:48.144Z,90.88
2023-03-02T00:05:17.981Z,93.12
2023-03-02T00:07:48.697Z,94.31
2023-03-02T00:10:20.374Z,93.02
2023-03-02T00:12:50.637Z,91.88
2023-03-02T00:15:21.243Z,93.42
2023-03-02T00:17:51.864Z,97.62
2023-03-02T00:20:22.482Z,98.63
2023-03-02T00:22:52.689Z,94.27
2023-03-02T00:25:24.559Z,92.41
2023-03-02T00:27:55.247Z,90.81
2023-03-02T00:30:26.076Z,95.10
2023-03-02T00:32:58.695Z,94.55
2023-03-02T00:35:29.456Z,94.13
2023-03-02T00:37:59.897Z,92.58
2023-03-02T00:40:32.220Z,97.94
2023-03-02T00:43:02.105Z,96.29
2023-03-02T00:45:32.592Z,94.43
2023-03-02T00:48:03.365Z,92.37
2023-03-02T00:50:33.948Z,94.18
2023-03-02T00:53:04.170Z,94.80
2023-03-02T00:55:36.223Z,93.29
2023-03-02T00:58:07.154Z,93.01
2023-03-02T01:00:38.722Z,93.63
2023-03-02T01:03:09.105Z,92.96
2023-03-02T01:05:40.415Z,96.63
2023-03-02T01:08:11.034Z,93.23
2023-03-02T01:10:43.764Z,94.59
2023-03-02T01:13:14.301Z,96.00
2023-03-02T01:15:44.806Z,97.86
2023-03-02T01:18:16.177Z,95.92
2023-03-02T01:20:46.996Z,95.54
2023-03-02T01:23:18.318Z,95.75
2023-03-02T01:25:49.822Z,95.59
2023-03-02T01:28:20.235Z,92.21
2023-03-02T01:30:50.442Z,94.79
2023-03-02T01:33:21.569Z,95.66
2023-03-02T01:35:51.509Z,98.05
2023-03-02T01:38:22.213Z,96.39
2023-03-02T01:40:55.064Z,93.71
2023-03-02T01:43:24.808Z,93.65
2023-03-02T01:45:57.891Z,92.72
2023-03-02T01:48:32.043Z,93.93
2023-03-02T01:51:03.527Z,95.60
2023-03-02T01:53:35.207Z,94.88
2023-03-02T01:56:09.257Z,95.12
2023-03-02T01:58:39.571Z,98.02
2023-03-02T02:01:15.991Z,96.10
2023-03-02T02:03:48.570Z,95.09
2023-03-02T02:06:23.422Z,95.40
2023-03-02T02:08:56.342Z,95.05
2023-03-02T02:11:29.170Z,95.93
2023-03-02T02:14:01.124Z,96.05
2023-03-02T02:16:33.819Z,95.63
2023-03-02T02:19:05.064Z,94.47
2023-03-02T02:21:35.429Z,97.35
2023-03-02T02:24:10.733Z,97.99
2023-03-02T02:26:46.336Z,96.28
2023-03-02T02:29:23.185Z,95.43
2023-03-02T02:31:57.033Z,96.09
2023-03-02T02:34:31.581Z,97.73
2023-03-02T02:37:06.632Z,96.33
2023-03-02T02:39:39.473Z,97.62
2023-03-02T02:42:16.100Z,98.30
2023-03-02T02:44:46.691Z,97.34
2023-03-02T02:47:20.220Z,98.28
2023-03-02T02:49:51.968Z,98.60
2023-03-02T02:52:24.963Z,97.69
2023-03-02T02:54:58.553Z,99.11
2023-03-02T02:57:35.067Z,97.67
2023-03-02T03:00:06.951Z,95.36
2023-03-02T03:02:44.355Z,94.51
2023-03-02T03:05:18.065Z,97.21
2023-03-02T03:07:48.200Z,97.40
2023-03-02T03:10:21.661Z,96.39
2023-03-02T03:12:54.556Z,96.22
2023-03-02T03:15:25.985Z,96.80
2023-03-02T03:17:59.340Z,97.20
2023-03-02T03:20:30.624Z,96.81
2023-03-02T03:23:01.278Z,94.60
2023-03-02T03:25:35.508Z,97.03
2023-03-02T03:28:07.665Z,98.10
2023-03-02T03:30:38.304Z,97.58
2023-03-02T03:33:11.459Z,97.79
2023-03-02T03:35:41.463Z,99.23
2023-03-02T03:38:11.699Z,98.06
2023-03-02T03:40:43.173Z,97.34
2023-03-02T03:43:15.661Z,100.00
2023-03-02T03:45:45.918Z,100.00
2023-03-02T03:48:16.837Z,99.76
2023-03-02T03:50:47.310Z,96.84
2023-03-02T03:53:16.872Z,98.49
2023-03-02T03:55:46.581Z,97.59
2023-03-02T03:58:19.508Z,96.06
2023-03-02T04:00:49.610Z,97.48
2023-03-02T04:03:20.860Z,96.84
2023-03-02T04:05:57.632Z,96.03
2023-03-02T04:08:27.618Z,93.26
2023-03-02T04:10:57.613Z,96.59
2023-03-02T04:13:29.662Z,95.95
2023-03-02T04:16:00.127Z,97.05
2023-03-02T04:18:30.705Z,95.04
2023-03-02T04:21:01.838Z,96.57
2023-03-02T04:23:32.076Z,95.20
2023-03-02T04:26:05.434Z,94.89
2023-03-02T04:28:37.760Z,96.62
2023-03-02T04:31:09.026Z,96.41
2023-03-02T04:33:40.632Z,96.11
2023-03-02T04:36:11.570Z,97.13
2023-03-02T04:38:41.518Z,94.30
2023-03-02T04:41:11.799Z,95.42
2023-03-02T04:43:43.496Z,94.28
2023-03-02T04:46:17.291Z,95.40
2023-03-02T04:48:48.205Z,95.35
2023-03-02T04:51:24.380Z,96.46
2023-03-02T04:53:54.665Z,96.28
2023-03-02T04:56:25.311Z,95.23
2023-03-02T04:58:57.359Z,93.14
2023-03-02T05:01:27.879Z,95.12
2023-03-02T05:03:57.864Z,94.95
2023-03-02T05:06:28.069Z,96.79
2023-03-02T05:09:00.265Z,95.68
2023-03-02T05:11:30.457Z,95.05
2023-03-02T05:14:05.909Z,93.70
2023-03-02T05:16:38.111Z,93.16
2023-03-02T05:19:09.894Z,95.51
2023-03-02T05:21:40.411Z,96.85
2023-03-02T05:24:10.401Z,95.53
2023-03-02T05:26:40.937Z,96.42
2023-03-02T05:29:12.924Z,94.26
2023-03-02T05:31:45.007Z,100.00
2023-03-02T05:34:18.118Z,95.50
2023-03-02T05:36:48.019Z,98.83
2023-03-02T05:39:18.766Z,97.85
2023-03-02T05:41:48.889Z,97.53
2023-03-02T05:44:20.324Z,94.79
2023-03-02T05:46:51.704Z,98.94
2023-03-02T05:49:21.898Z,100.00
2023-03-02T05:51:52.024Z,100.00
2023-03-02T05:54:22.649Z,99.84
2023-03-02T05:56:52.575Z,95.85
2023-03-02T05:59:25.030Z,99.00
2023-03-02T06:01:59.229Z,98.12
2023-03-02T06:04:29.664Z,96.79
2023-03-02T06:06:59.833Z,96.72
2023-03-02T06:09:29.782Z,95.83
2023-03-02T06:12:00.016Z,96.91
2023-03-02T06:14:31.683Z,98.35
2023-03-02T06:17:01.672Z,100.00
2023-03-02T06:19:31.524Z,98.96
2023-03-02T06:22:01.455Z,98.39
2023-03-02T06:24:32.059Z,98.86
2023-03-02T06:27:02.509Z,100.00
2023-03-02T06:29:33.288Z,98.54
2023-03-02T06:32:03.860Z,97.21
2023-03-02T06:34:35.474Z,96.70
2023-03-02T06:37:06.190Z,97.72
2023-03-02T06:39:36.533Z,96.64
2023-03-02T06:42:06.911Z,96.94
2023-03-02T06:44:38.502Z,96.83
2023-03-02T06:47:08.643Z,95.61
2023-03-02T06:49:38.439Z,98.68
2023-03-02T06:52:08.920Z,96.35
2023-03-02T06:54:39.207Z,98.23
2023-03-02T06:57:09.324Z,98.53
2023-03-02T06:59:41.275Z,99.03
2023-03-02T07:02:12.634Z,97.13
2023-03-02T07:04:43.146Z,100.00
2023-03-02T07:07:15.249Z,99.84
2023-03-02T07:09:45.347Z,97.75
2023-03-02T07:12:15.901Z,95.55
2023-03-02T07:14:48.890Z,97.79
2023-03-02T07:17:19.410Z,95.86
2023-03-02T07:19:49.646Z,97.94
2023-03-02T07:22:20.693Z,95.82
2023-03-02T07:24:51.493Z,95.88
2023-03-02T07:27:22.464Z,94.89
2023-03-02T07:29:54.109Z,93.97
2023-03-02T07:32:24.931Z,93.34
2023-03-02T07:34:55.683Z,96.46
2023-03-02T07:37:26.245Z,97.00
2023-03-02T07:39:56.188Z,96.24
2023-03-02T07:42:26.596Z,93.98
2023-03-02T07:44:58.072Z,96.54
2023-03-02T07:47:27.980Z,92.90
2023-03-02T07:49:57.864Z,93.96
2023-03-02T07:52:27.811Z,94.05
2023-03-02T07:54:57.603Z,100.00
2023-03-02T07:57:28.047Z,97.26
2023-03-02T07:59:59.881Z,97.95
2023-03-02T08:02:31.128Z,94.94
2023-03-02T08:05:01.427Z,97.78
2023-03-02T08:07:31.802Z,100.00
2023-03-02T08:10:02.889Z,97.75
2023-03-02T08:12:32.593Z,100.00
2023-03-02T08:15:05.230Z,100.00
2023-03-02T08:17:35.166Z,100.00
2023-03-02T08:20:06.752Z,100.00
2023-03-02T08:22:37.244Z,100.00
2023-03-02T08:25:09.138Z,100.00
2023-03-02T08:27:40.829Z,100.00
2023-03-02T08:30:14.381Z,100.00
2023-03-02T08:32:44.776Z,100.00
2023-03-02T08:35:14.896Z,100.00
2023-03-02T08:37:45.298Z,100.00
2023-03-02T08:40:15.987Z,100.00
2023-03-02T08:42:46.072Z,100.00
2023-03-02T08:45:21.112Z,100.00
2023-03-02T08:47:51.005Z,100.00
2023-03-02T08:50:21.657Z,100.00
2023-03-02T08:52:51.801Z,100.00
2023-03-02T08:55:21.586Z,100.00
2023-03-02T08:57:52.212Z,100.00
2023-03-02T09:00:25.181Z,100.00
2023-03-02T09:02:55.960Z,100.00
2023-03-02T09:05:25.901Z,100.00
2023-03-02T09:07:55.792Z,100.00
2023-03-02T09:10:25.307Z,100.00
2023-03-02T09:12:55.845Z,100.00
2023-03-02T09:15:27.128Z,100.00
2023-03-02T09:17:57.176Z,100.00
2023-03-02T09:20:27.834Z,100.00
2023-03-02T09:22:58.032Z,100.00
2023-03-02T09:25:28.344Z,100.00
2023-03-02T09:27:58.532Z,100.00
2023-03-02T09:30:32.191Z,100.00
2023-03-02T09:33:02.881Z,100.00
2023-03-02T09:35:32.970Z,100.00
2023-03-02T09:38:03.465Z,100.00
2023-03-02T09:40:40.198Z,99.39
2023-03-02T09:43:19.942Z,97.67
2023-03-02T09:45:59.990Z,95.28
2023-03-02T09:48:41.754Z,94.48
2023-03-02T09:51:25.940Z,93.16
2023-03-02T09:54:06.126Z,92.48
2023-03-02T09:56:38.420Z,91.95
2023-03-02T09:59:15.455Z,90.68
2023-03-02T10:01:49.723Z,91.07
2023-03-02T10:04:25.809Z,91.23
2023-03-02T10:06:59.807Z,93.99
2023-03-02T10:09:31.055Z,92.77
2023-03-02T10:12:16.505Z,91.93
2023-03-02T10:14:51.187Z,90.66
2023-03-02T10:17:41.738Z,90.96
2023-03-02T10:20:16.301Z,92.15
2023-03-02T10:22:50.112Z,90.60
2023-03-02T10:25:28.280Z,91.22
2023-03-02T10:28:03.080Z,91.12
2023-03-02T10:30:35.709Z,88.17
2023-03-02T10:33:14.201Z,87.78
2023-03-02T10:35:50.293Z,87.74
2023-03-02T10:38:23.068Z,88.03
2023-03-02T10:41:00.364Z,88.27
2023-03-02T10:43:40.212Z,89.45
2023-03-02T10:46:13.060Z,88.72
2023-03-02T10:48:51.597Z,87.63
2023-03-02T10:51:27.427Z,87.23
2023-03-02T10:54:18.242Z,88.31
2023-03-02T10:56:52.638Z,88.91
2023-03-02T10:59:39.929Z,87.81
2023-03-02T11:02:23.679Z,86.49
2023-03-02T11:04:58.908Z,88.80
2023-03-02T11:07:30.646Z,86.54
2023-03-02T11:10:03.747Z,81.85
2023-03-02T11:12:37.505Z,82.48
2023-03-02T11:15:27.420Z,84.96
2023-03-02T11:18:04.355Z,86.13
2023-03-02T11:20:39.856Z,83.25
2023-03-02T11:23:20.671Z,82.77
2023-03-02T11:25:55.524Z,82.26
2023-03-02T11:28:41.846Z,83.43
2023-03-02T11:31:18.456Z,82.99
2023-03-02T11:34:11.551Z,82.53
2023-03-02T11:37:07.668Z,82.05
2023-03-02T11:39:55.720Z,79.75
2023-03-02T11:42:30.995Z,79.69
2023-03-02T11:45:04.988Z,80.35
2023-03-02T11:47:36.812Z,79.44
2023-03-02T11:50:08.628Z,80.02
2023-03-02T11:52:44.310Z,80.28
2023-03-02T11:55:19.924Z,81.67
2023-03-02T11:57:53.080Z,78.91
2023-03-02T12:00:35.625Z,74.58
2023-03-02T12:03:07.995Z,75.72
2023-03-02T12:05:40.656Z,75.75
2023-03-02T12:08:34.928Z,77.12
2023-03-02T12:11:08.964Z,77.08
2023-03-02T12:13:41.010Z,77.95
2023-03-02T12:16:22.894Z,78.47
2023-03-02T12:18:53.553Z,75.96
2023-03-02T12:21:24.915Z,76.24
2023-03-02T12:24:06.606Z,75.07
2023-03-02T12:26:40.145Z,72.05
2023-03-02T12:29:25.324Z,74.02
2023-03-02T12:31:58.055Z,74.67
2023-03-02T12:34:34.430Z,73.53
2023-03-02T12:37:14.629Z,74.82
2023-03-02T12:40:18.972Z,73.02
2023-03-02T12:43:16.549Z,75.02
2023-03-02T12:45:57.840Z,70.73
2023-03-02T12:48:33.126Z,73.87
2023-03-02T12:51:06.150Z,75.15
2023-03-02T12:53:40.125Z,76.85
2023-03-02T12:56:11.641Z,74.91
2023-03-02T12:58:52.571Z,75.75
2023-03-02T13:01:27.129Z,75.45
2023-03-02T13:03:58.184Z,72.99
2023-03-02T13:06:32.696Z,73.17
2023-03-02T13:09:03.657Z,73.41
2023-03-02T13:11:36.106Z,69.71
2023-03-02T13:14:23.958Z,69.93
2023-03-02T13:17:00.437Z,70.98
2023-03-02T13:19:32.231Z,70.20
2023-03-02T13:22:02.360Z,69.24
2023-03-02T13:24:38.078Z,69.40
2023-03-02T13:27:10.017Z,67.45
2023-03-02T13:29:42.394Z,69.58
2023-03-02T13:32:25.148Z,69.62
2023-03-02T13:34:56.475Z,70.30
2023-03-02T13:37:40.753Z,67.55
2023-03-02T13:40:35.986Z,69.18
2023-03-02T13:43:09.170Z,68.40
2023-03-02T13:45:42.008Z,67.49
2023-03-02T13:48:17.416Z,69.25
2023-03-02T13:50:55.630Z,69.37
2023-03-02T13:53:26.936Z,68.39
2023-03-02T13:55:57.740Z,66.63
2023-03-02T13:58:28.622Z,66.88
2023-03-02T14:01:00.881Z,67.43
2023-03-02T14:03:33.119Z,67.79
2023-03-02T14:06:04.074Z,67.26
2023-03-02T14:08:34.370Z,64.69
2023-03-02T14:11:05.480Z,63.93
2023-03-02T14:13:40.209Z,60.73
2023-03-02T14:16:13.885Z,63.42
2023-03-02T14:18:47.472Z,63.92
2023-03-02T14:21:19.902Z,63.18
2023-03-02T14:23:50.581Z,63.86
2023-03-02T14:26:32.164Z,64.83
2023-03-02T14:29:06.277Z,65.18
2023-03-02T14:31:38.485Z,66.33
2023-03-02T14:34:10.407Z,66.00
2023-03-02T14:36:41.279Z,66.61
2023-03-02T14:39:22.992Z,64.77
2023-03-02T14:41:55.736Z,67.10
2023-03-02T14:44:26.754Z,66.40
2023-03-02T14:46:58.810Z,67.50
2023-03-02T14:49:30.949Z,66.48
2023-03-02T14:52:04.481Z,65.11
2023-03-02T14:54:39.354Z,66.39
2023-03-02T14:57:18.802Z,64.98
2023-03-02T14:59:49.475Z,64.16
2023-03-02T15:02:26.109Z,65.82
2023-03-02T15:05:02.012Z,64.73
2023-03-02T15:07:33.152Z,64.79
2023-03-02T15:10:03.842Z,65.90
2023-03-02T15:12:34.665Z,66.66
2023-03-02T15:15:06.400Z,64.24
2023-03-02T15:17:39.132Z,65.05
2023-03-02T15:20:13.870Z,63.50
2023-03-02T15:22:46.842Z,64.90
2023-03-02T15:25:18.236Z,65.25
2023-03-02T15:27:49.872Z,63.98
2023-03-02T15:30:21.522Z,65.68
2023-03-02T15:32:54.971Z,65.57
2023-03-02T15:35:29.750Z,65.64
2023-03-02T15:38:02.746Z,63.83
2023-03-02T15:40:34.250Z,65.70
2023-03-02T15:43:04.901Z,63.71
2023-03-02T15:45:35.726Z,64.75
2023-03-02T15:48:12.601Z,62.31
2023-03-02T15:50:43.664Z,64.68
2023-03-02T15:53:16.235Z,61.95
2023-03-02T15:55:46.623Z,58.44
2023-03-02T15:58:18.949Z,60.69
2023-03-02T16:00:52.872Z,61.01
2023-03-02T16:03:25.816Z,57.78
2023-03-02T16:06:00.941Z,61.83
2023-03-02T16:08:32.004Z,61.88
2023-03-02T16:11:04.444Z,61.43
2023-03-02T16:13:35.237Z,59.85
2023-03-02T16:16:06.954Z,59.84
2023-03-02T16:18:40.132Z,58.89
2023-03-02T16:21:15.310Z,59.77
2023-03-02T16:23:47.181Z,59.88
2023-03-02T16:26:20.621Z,59.80
2023-03-02T16:28:51.633Z,59.80
2023-03-02T16:31:26.584Z,60.67
2023-03-02T16:33:59.592Z,60.95
2023-03-02T16:36:29.494Z,60.25
2023-03-02T16:39:00.303Z,60.02
2023-03-02T16:41:31.334Z,60.14
2023-03-02T16:44:02.775Z,59.10
2023-03-02T16:46:36.470Z,59.65
2023-03-02T16:49:08.923Z,59.21
2023-03-02T16:51:40.293Z,59.03
2023-03-02T16:54:10.938Z,60.29
2023-03-02T16:56:45.379Z,60.67
2023-03-02T16:59:16.004Z,61.21
2023-03-02T17:01:46.166Z,61.30
2023-03-02T17:04:18.923Z,61.46
2023-03-02T17:07:03.889Z,60.03
2023-03-02T17:09:36.285Z,59.64
2023-03-02T17:12:08.338Z,60.50
2023-03-02T17:14:42.217Z,61.14
2023-03-02T17:17:12.690Z,60.72
2023-03-02T17:19:44.687Z,62.02
2023-03-02T17:22:15.115Z,61.25
2023-03-02T17:24:45.570Z,63.04
2023-03-02T17:27:24.863Z,64.25
2023-03-02T17:29:56.691Z,63.49
2023-03-02T17:32:27.414Z,66.47
2023-03-02T17:34:58.923Z,65.25
2023-03-02T17:37:30.583Z,64.06
2023-03-02T17:40:01.277Z,63.92
2023-03-02T17:42:31.478Z,65.64
2023-03-02T17:45:02.461Z,63.51
2023-03-02T17:47:33.663Z,64.36
2023-03-02T17:50:13.260Z,65.42
2023-03-02T17:52:44.368Z,64.22
2023-03-02T17:55:16.538Z,65.41
2023-03-02T17:57:47.169Z,63.98
2023-03-02T18:00:21.382Z,64.40
2023-03-02T18:02:51.902Z,65.22
2023-03-02T18:05:24.293Z,64.65
2023-03-02T18:07:54.854Z,65.24
2023-03-02T18:10:24.865Z,64.85
2023-03-02T18:12:57.288Z,65.19
2023-03-02T18:15:30.074Z,65.14
2023-03-02T18:18:01.301Z,66.54
2023-03-02T18:20:33.604Z,65.42
2023-03-02T18:23:03.803Z,64.83
2023-03-02T18:25:34.547Z,66.31
2023-03-02T18:28:04.400Z,65.11
2023-03-02T18:30:35.657Z,65.11
2023-03-02T18:33:06.078Z,64.60
2023-03-02T18:35:39.366Z,64.90
2023-03-02T18:38:09.728Z,64.19
2023-03-02T18:40:40.107Z,64.25
2023-03-02T18:43:10.645Z,64.08
2023-03-02T18:45:41.150Z,62.68
2023-03-02T18:48:11.066Z,64.41
2023-03-02T18:50:42.717Z,63.30
2023-03-02T18:53:13.086Z,64.39
2023-03-02T18:55:43.543Z,63.38
2023-03-02T18:58:20.196Z,63.84
2023-03-02T19:00:51.111Z,64.18
2023-03-02T19:03:23.068Z,64.17
2023-03-02T19:05:57.893Z,63.94
2023-03-02T19:08:30.591Z,65.24
2023-03-02T19:11:01.110Z,66.14
2023-03-02T19:13:31.679Z,65.66
2023-03-02T19:16:02.938Z,64.71
2023-03-02T19:18:34.696Z,64.93
2023-03-02T19:21:08.351Z,64.65
2023-03-02T19:23:39.036Z,63.61
2023-03-02T19:26:11.052Z,64.19
2023-03-02T19:28:41.488Z,63.58
2023-03-02T19:31:13.954Z,62.18
2023-03-02T19:33:45.502Z,62.28
2023-03-02T19:36:17.020Z,63.23
2023-03-02T19:38:47.246Z,65.46
2023-03-02T19:41:20.221Z,63.52
2023-03-02T19:43:50.930Z,63.93
2023-03-02T19:46:21.171Z,64.48
2023-03-02T19:48:50.943Z,66.22
2023-03-02T19:51:22.393Z,65.45
2023-03-02T19:53:54.016Z,66.09
2023-03-02T19:56:27.671Z,66.79
2023-03-02T19:58:58.213Z,66.34
2023-03-02T20:01:32.320Z,66.04
2023-03-02T20:04:03.195Z,66.45
2023-03-02T20:06:37.251Z,66.42
2023-03-02T20:09:08.752Z,66.19
2023-03-02T20:11:39.577Z,67.08
2023-03-02T20:14:12.030Z,67.68
2023-03-02T20:16:42.272Z,66.86
2023-03-02T20:19:14.349Z,67.94
2023-03-02T20:21:46.708Z,67.37
2023-03-02T20:24:17.321Z,65.95
2023-03-02T20:26:47.852Z,66.91
2023-03-02T20:29:18.499Z,64.91
2023-03-02T20:31:49.554Z,64.50
2023-03-02T20:34:20.110Z,64.81
2023-03-02T20:36:52.162Z,64.72
2023-03-02T20:39:26.061Z,64.52
2023-03-02T20:41:56.918Z,65.41
2023-03-02T20:44:31.220Z,66.04
2023-03-02T20:47:05.000Z,65.36
2023-03-02T20:49:38.278Z,64.87
2023-03-02T20:52:10.897Z,64.88
2023-03-02T20:54:43.437Z,64.12
2023-03-02T20:57:16.977Z,65.78
2023-03-02T20:59:47.606Z,64.90
2023-03-02T21:02:18.680Z,63.99
2023-03-02T21:04:50.607Z,65.16
2023-03-02T21:07:22.141Z,66.31
2023-03-02T21:09:53.113Z,66.68
2023-03-02T21:12:24.006Z,66.87
2023-03-02T21:14:54.394Z,68.03
2023-03-02T21:17:25.185Z,67.97
2023-03-02T21:19:56.292Z,69.55
2023-03-02T21:22:28.591Z,68.53
2023-03-02T21:24:59.920Z,69.00
2023-03-02T21:27:31.011Z,70.04
2023-03-02T21:30:06.834Z,68.72
2023-03-02T21:32:38.392Z,71.10
2023-03-02T21:35:10.539Z,68.04
2023-03-02T21:37:42.536Z,68.60
2023-03-02T21:40:17.641Z,68.88
2023-03-02T21:42:48.007Z,68.48
2023-03-02T21:45:21.392Z,67.89
2023-03-02T21:47:53.472Z,67.59
2023-03-02T21:50:27.486Z,68.26
2023-03-02T21:52:59.613Z,68.45
2023-03-02T21:55:31.288Z,68.38
2023-03-02T21:58:02.265Z,68.28
2023-03-02T22:00:35.081Z,68.21
2023-03-02T22:03:05.777Z,68.52
2023-03-02T22:05:36.598Z,68.73
2023-03-02T22:08:08.652Z,69.59
2023-03-02T22:10:43.835Z,69.88
2023-03-02T22:13:21.527Z,69.14
2023-03-02T22:15:53.268Z,69.91
2023-03-02T22:18:26.489Z,69.65
2023-03-02T22:20:56.640Z,69.67
2023-03-02T22:23:28.666Z,70.46
2023-03-02T22:26:18.991Z,70.66
2023-03-02T22:28:49.399Z,71.91
2023-03-02T22:31:22.637Z,70.83
2023-03-02T22:33:52.616Z,70.94
2023-03-02T22:36:26.172Z,70.41
2023-03-02T22:39:14.310Z,70.90
2023-03-02T22:41:44.375Z,70.90
2023-03-02T22:44:15.471Z,70.25
2023-03-02T22:46:45.935Z,70.35
2023-03-02T22:49:19.162Z,69.91
2023-03-02T22:51:49.026Z,70.42
2023-03-02T22:54:25.531Z,70.61
2023-03-02T22:56:57.217Z,70.72
2023-03-02T22:59:28.059Z,70.58
2023-03-02T23:02:02.009Z,69.65
2023-03-02T23:04:37.364Z,69.59
2023-03-02T23:07:15.803Z,69.86
2023-03-02T23:09:47.764Z,69.48
2023-03-02T23:12:21.936Z,70.12
2023-03-02T23:14:54.142Z,69.88
2023-03-02T23:17:29.572Z,69.54
2023-03-02T23:20:00.239Z,69.83
2023-03-02T23:22:32.040Z,71.32
2023-03-02T23:25:04.434Z,71.91
2023-03-02T23:27:35.176Z,72.68
2023-03-02T23:30:06.311Z,73.68
2023-03-02T23:32:36.831Z,72.74
2023-03-02T23:35:07.161Z,71.17
2023-03-02T23:37:37.693Z,72.89
2023-03-02T23:40:12.891Z,72.93
2023-03-02T23:42:42.802Z,71.14
2023-03-02T23:45:14.024Z,72.84
2023-03-02T23:47:44.913Z,73.01
2023-03-02T23:50:16.116Z,71.71
2023-03-02T23:52:45.981Z,73.17
2023-03-02T23:55:17.462Z,73.00
2023-03-02T23:57:47.721Z,73.93
